Time;durP1;ratioP1;P1;durP2;ratioP2;P2;SDS_P1;SDS_P2;PMS_P1;PMS_P2;Temp;Humidity;BMP_temperature;BMP_pressure;BME280_temperature;BME280_humidity;BME280_pressure;Samples;Min_cycle;Max_cycle;Signal;HPM_P1;HPM_P2
2023/01/31 00:04:55;;;;;;;60.00;20.65;;;;;;;;;;10440847;28;20540;-75
2023/01/31 00:09:55;;;;;;;46.53;18.60;;;;;;;;;;10440254;28;20022;-72
2023/01/31 00:14:55;;;;;;;59.42;23.42;;;;;;;;;;10440484;28;20868;-73
2023/01/31 00:19:55;;;;;;;55.17;22.52;;;;;;;;;;10421011;28;20028;-73
2023/01/31 00:24:56;;;;;;;55.15;22.05;;;;;;;;;;10442340;28;20022;-73
2023/01/31 00:29:56;;;;;;;45.97;20.90;;;;;;;;;;10443061;28;20364;-73
2023/01/31 00:34:56;;;;;;;51.08;22.23;;;;;;;;;;10432943;28;20024;-74
2023/01/31 00:39:56;;;;;;;57.78;22.80;;;;;;;;;;10441263;28;20033;-75
2023/01/31 00:44:57;;;;;;;57.97;22.48;;;;;;;;;;10440301;28;20166;-72
2023/01/31 00:49:57;;;;;;;52.90;21.27;;;;;;;;;;10430848;28;20021;-75
2023/01/31 00:54:57;;;;;;;52.13;20.97;;;;;;;;;;10412763;28;20045;-74
2023/01/31 00:59:57;;;;;;;57.28;22.23;;;;;;;;;;10440306;28;20021;-70
2023/01/31 01:04:58;;;;;;;53.38;18.60;;;;;;;;;;10439600;28;20021;-71
2023/01/31 01:09:58;;;;;;;44.50;18.42;;;;;;;;;;10440181;28;20025;-72
2023/01/31 01:14:58;;;;;;;45.92;16.42;;;;;;;;;;10439210;28;20025;-76
2023/01/31 01:20:02;;;;;;;38.47;15.63;;;;;;;;;;10439555;28;20021;-75
2023/01/31 01:25:02;;;;;;;42.75;17.58;;;;;;;;;;10439849;28;20499;-72
2023/01/31 01:30:04;;;;;;;45.72;15.63;;;;;;;;;;10439744;28;20025;-71
2023/01/31 01:35:05;;;;;;;39.28;13.73;;;;;;;;;;10439956;28;20047;-70
2023/01/31 01:40:05;;;;;;;33.40;11.63;;;;;;;;;;10439693;28;20163;-74
2023/01/31 01:45:14;;;;;;;27.60;8.70;;;;;;;;;;10439502;28;20025;-75
2023/01/31 01:50:27;;;;;;;19.15;8.57;;;;;;;;;;10441355;28;20049;-72
2023/01/31 01:55:36;;;;;;;20.35;6.78;;;;;;;;;;10481287;28;20072;-73
2023/01/31 02:00:36;;;;;;;17.05;5.60;;;;;;;;;;10464778;28;20096;-73
2023/01/31 02:05:40;;;;;;;12.35;5.15;;;;;;;;;;10463708;28;20042;-74
2023/01/31 02:10:52;;;;;;;10.50;4.20;;;;;;;;;;10458549;28;20028;-75
2023/01/31 02:15:52;;;;;;;12.48;4.75;;;;;;;;;;10459535;28;20024;-74
2023/01/31 02:20:53;;;;;;;9.15;4.22;;;;;;;;;;10470417;28;20473;-72
2023/01/31 02:26:11;;;;;;;8.88;4.22;;;;;;;;;;10488993;28;20482;-75
2023/01/31 02:31:30;;;;;;;13.65;5.13;;;;;;;;;;10470668;28;20016;-73
2023/01/31 02:36:34;;;;;;;10.23;4.93;;;;;;;;;;10470564;28;20124;-72
2023/01/31 02:41:54;;;;;;;13.63;5.22;;;;;;;;;;10469640;28;20477;-71
2023/01/31 02:46:59;;;;;;;10.73;4.88;;;;;;;;;;10469263;28;20091;-73
2023/01/31 02:52:22;;;;;;;10.23;4.70;;;;;;;;;;10449045;28;20079;-70
2023/01/31 02:57:23;;;;;;;12.40;5.60;;;;;;;;;;10461950;28;20474;-76
2023/01/31 03:02:24;;;;;;;16.35;5.90;;;;;;;;;;10449687;28;20064;-78
2023/01/31 03:07:28;;;;;;;12.15;5.32;;;;;;;;;;10461203;28;20023;-72
2023/01/31 03:12:34;;;;;;;11.73;5.45;;;;;;;;;;10452814;28;20013;-76
2023/01/31 03:17:48;;;;;;;13.60;6.13;;;;;;;;;;10469006;28;20550;-76
2023/01/31 03:22:48;;;;;;;16.65;6.95;;;;;;;;;;10468806;28;20021;-73
2023/01/31 03:27:55;;;;;;;15.23;6.57;;;;;;;;;;10468360;28;20402;-75
2023/01/31 03:33:07;;;;;;;18.23;8.37;;;;;;;;;;10468091;28;20452;-74
2023/01/31 03:38:14;;;;;;;16.23;6.97;;;;;;;;;;10468015;28;20499;-71
2023/01/31 03:43:18;;;;;;;15.63;5.97;;;;;;;;;;10468607;28;20078;-72
2023/01/31 03:48:21;;;;;;;15.90;7.30;;;;;;;;;;10468752;28;20107;-71
2023/01/31 03:53:28;;;;;;;15.65;7.85;;;;;;;;;;10467490;28;20518;-75
2023/01/31 03:58:30;;;;;;;16.85;7.38;;;;;;;;;;10467858;28;20013;-76
2023/01/31 04:03:34;;;;;;;20.35;7.82;;;;;;;;;;10467053;28;20040;-75
2023/01/31 04:08:35;;;;;;;19.33;7.18;;;;;;;;;;10466982;28;20016;-70
2023/01/31 04:13:35;;;;;;;18.38;7.90;;;;;;;;;;10466724;28;20039;-74
2023/01/31 04:18:35;;;;;;;19.43;7.77;;;;;;;;;;10467007;28;20019;-74
2023/01/31 04:23:36;;;;;;;19.52;8.73;;;;;;;;;;10446509;28;20792;-72
2023/01/31 04:28:36;;;;;;;17.35;7.80;;;;;;;;;;10466340;28;20020;-73
2023/01/31 04:33:36;;;;;;;23.27;8.50;;;;;;;;;;10465773;28;20038;-76
2023/01/31 04:38:36;;;;;;;26.77;10.88;;;;;;;;;;10466063;28;20017;-75
2023/01/31 04:43:37;;;;;;;23.13;9.07;;;;;;;;;;10465172;28;20418;-71
2023/01/31 04:48:39;;;;;;;21.52;10.18;;;;;;;;;;10454017;28;20013;-70
2023/01/31 04:53:41;;;;;;;18.90;8.25;;;;;;;;;;10466303;28;20136;-72
2023/01/31 04:58:42;;;;;;;18.10;8.95;;;;;;;;;;10464927;28;20064;-74
2023/01/31 05:03:42;;;;;;;21.77;8.73;;;;;;;;;;10462764;28;20573;-77
2023/01/31 05:08:42;;;;;;;21.25;10.15;;;;;;;;;;10450522;28;20028;-71
2023/01/31 05:13:44;;;;;;;18.83;8.73;;;;;;;;;;10446743;28;20028;-71
2023/01/31 05:18:44;;;;;;;19.35;10.52;;;;;;;;;;10454789;28;20025;-77
2023/01/31 05:23:44;;;;;;;18.58;8.48;;;;;;;;;;10455298;28;20482;-74
2023/01/31 05:28:45;;;;;;;20.50;9.07;;;;;;;;;;10440758;28;20021;-72
2023/01/31 05:33:45;;;;;;;28.75;10.23;;;;;;;;;;10454941;28;20024;-71
2023/01/31 05:38:47;;;;;;;27.48;10.15;;;;;;;;;;10471372;28;20017;-76
2023/01/31 05:43:47;;;;;;;16.60;9.05;;;;;;;;;;10490330;28;20029;-73
2023/01/31 05:48:47;;;;;;;18.63;8.55;;;;;;;;;;10463089;28;20021;-75
2023/01/31 05:53:48;;;;;;;15.43;8.57;;;;;;;;;;10456204;28;20052;-76
2023/01/31 05:58:49;;;;;;;17.00;9.18;;;;;;;;;;10464616;28;20052;-77
2023/01/31 06:03:50;;;;;;;21.63;9.40;;;;;;;;;;10445392;28;20025;-76
2023/01/31 06:08:50;;;;;;;13.73;8.27;;;;;;;;;;10471356;28;20469;-77
2023/01/31 06:13:50;;;;;;;22.13;8.65;;;;;;;;;;10472083;28;20394;-77
2023/01/31 06:18:51;;;;;;;18.00;7.97;;;;;;;;;;10470666;28;20066;-72
2023/01/31 06:23:51;;;;;;;29.20;10.83;;;;;;;;;;10469707;28;20012;-72
2023/01/31 06:28:51;;;;;;;16.10;8.43;;;;;;;;;;10440647;28;20027;-78
2023/01/31 06:33:51;;;;;;;23.17;9.10;;;;;;;;;;10462145;28;20025;-71
2023/01/31 06:38:52;;;;;;;21.98;8.95;;;;;;;;;;10463215;28;20036;-71
2023/01/31 06:43:52;;;;;;;21.20;10.65;;;;;;;;;;10468305;28;20020;-78
2023/01/31 06:48:52;;;;;;;18.97;9.00;;;;;;;;;;10464641;28;20132;-76
2023/01/31 06:53:55;;;;;;;14.88;8.77;;;;;;;;;;10483817;28;20060;-74
2023/01/31 06:58:55;;;;;;;22.27;8.95;;;;;;;;;;10487314;28;20107;-74
2023/01/31 07:03:55;;;;;;;23.58;9.98;;;;;;;;;;10469760;28;20032;-77
2023/01/31 07:08:55;;;;;;;25.25;10.77;;;;;;;;;;10469755;28;20093;-72
2023/01/31 07:13:56;;;;;;;23.47;9.77;;;;;;;;;;10445201;28;20036;-73
2023/01/31 07:18:56;;;;;;;18.50;9.57;;;;;;;;;;10470041;28;20016;-72
2023/01/31 07:23:56;;;;;;;22.42;11.32;;;;;;;;;;10468026;28;20020;-76
2023/01/31 07:28:57;;;;;;;26.45;11.50;;;;;;;;;;10467365;28;20094;-78
2023/01/31 07:33:58;;;;;;;27.52;9.85;;;;;;;;;;10468714;28;20024;-71
2023/01/31 07:39:00;;;;;;;27.75;10.18;;;;;;;;;;10485772;28;20047;-78
2023/01/31 07:44:00;;;;;;;21.17;10.95;;;;;;;;;;10485636;28;20021;-78
2023/01/31 07:49:01;;;;;;;23.70;12.10;;;;;;;;;;10468518;28;20025;-77
2023/01/31 07:54:01;;;;;;;22.35;10.75;;;;;;;;;;10484987;28;20055;-75
2023/01/31 07:59:02;;;;;;;18.83;10.43;;;;;;;;;;10466766;28;20021;-71
2023/01/31 08:04:02;;;;;;;18.17;10.20;;;;;;;;;;10466543;28;20082;-73
2023/01/31 08:09:02;;;;;;;18.23;9.75;;;;;;;;;;10466919;28;20486;-74
2023/01/31 08:14:03;;;;;;;17.58;9.70;;;;;;;;;;10467246;28;20029;-75
2023/01/31 08:19:03;;;;;;;20.98;9.88;;;;;;;;;;10466452;28;20546;-77
2023/01/31 08:24:03;;;;;;;18.93;10.00;;;;;;;;;;10484085;28;20025;-77
2023/01/31 08:29:04;;;;;;;25.60;9.80;;;;;;;;;;10465979;28;20930;-72
2023/01/31 08:34:05;;;;;;;15.23;8.15;;;;;;;;;;10465189;28;20282;-77
2023/01/31 08:39:05;;;;;;;16.58;7.85;;;;;;;;;;10466305;28;20094;-77
2023/01/31 08:44:06;;;;;;;20.57;8.43;;;;;;;;;;10465672;28;20146;-79
2023/01/31 08:49:06;;;;;;;19.53;8.30;;;;;;;;;;10465941;28;20261;-77
2023/01/31 08:54:09;;;;;;;14.30;7.10;;;;;;;;;;10465331;28;20048;-80
2023/01/31 08:59:09;;;;;;;13.27;6.78;;;;;;;;;;10464799;28;20020;-80
2023/01/31 09:04:10;;;;;;;16.48;7.05;;;;;;;;;;10464747;28;20025;-76
2023/01/31 09:09:10;;;;;;;21.20;6.20;;;;;;;;;;10458269;28;20489;-80
2023/01/31 09:14:10;;;;;;;14.68;6.00;;;;;;;;;;10461167;28;20471;-73
2023/01/31 09:19:11;;;;;;;11.85;6.03;;;;;;;;;;10447881;28;20024;-72
2023/01/31 09:24:11;;;;;;;12.20;5.95;;;;;;;;;;10465316;28;20028;-72
2023/01/31 09:29:12;;;;;;;11.93;5.47;;;;;;;;;;10464149;28;20387;-72
2023/01/31 09:34:13;;;;;;;12.30;5.28;;;;;;;;;;10464917;28;20024;-74
2023/01/31 09:39:14;;;;;;;8.27;4.80;;;;;;;;;;10464575;28;20295;-76
2023/01/31 09:44:40;;;;;;;15.85;5.60;;;;;;;;;;10464478;28;20028;-80
2023/01/31 09:49:55;;;;;;;8.63;4.50;;;;;;;;;;10459852;28;20064;-75
2023/01/31 09:54:55;;;;;;;13.88;4.72;;;;;;;;;;10447696;28;20057;-74
2023/01/31 10:00:05;;;;;;;9.80;4.15;;;;;;;;;;10463946;28;20066;-73
2023/01/31 10:05:13;;;;;;;17.05;4.80;;;;;;;;;;10463568;28;20075;-74
2023/01/31 10:10:22;;;;;;;7.60;4.38;;;;;;;;;;10463938;28;20626;-75
2023/01/31 10:15:33;;;;;;;9.13;3.80;;;;;;;;;;10464024;28;20553;-78
2023/01/31 10:20:33;;;;;;;9.77;4.47;;;;;;;;;;10450555;28;20030;-72
2023/01/31 10:25:37;;;;;;;15.10;5.60;;;;;;;;;;10469668;28;20393;-76
2023/01/31 10:30:48;;;;;;;15.23;11.43;;;;;;;;;;10470925;28;20017;-76
2023/01/31 10:35:50;;;;;;;6.68;3.78;;;;;;;;;;10470204;28;20028;-72
2023/01/31 10:40:55;;;;;;;7.05;4.50;;;;;;;;;;10470181;28;20102;-73
2023/01/31 10:45:58;;;;;;;7.93;4.13;;;;;;;;;;10469561;28;20032;-73
2023/01/31 10:50:58;;;;;;;20.50;4.95;;;;;;;;;;10469902;28;20545;-73
2023/01/31 10:56:04;;;;;;;11.73;5.72;;;;;;;;;;10469292;28;20154;-77
2023/01/31 11:01:10;;;;;;;11.95;4.15;;;;;;;;;;10469316;28;20380;-76
2023/01/31 11:06:11;;;;;;;7.78;3.67;;;;;;;;;;10437374;28;20089;-74
2023/01/31 11:11:16;;;;;;;10.73;5.50;;;;;;;;;;10481995;28;20103;-72
2023/01/31 11:16:16;;;;;;;6.10;4.00;;;;;;;;;;10487071;28;20190;-72
2023/01/31 11:21:24;;;;;;;16.48;3.85;;;;;;;;;;10468161;28;20375;-71
2023/01/31 11:26:27;;;;;;;7.20;4.53;;;;;;;;;;10468934;28;20029;-74
2023/01/31 11:31:33;;;;;;;9.35;4.88;;;;;;;;;;10450854;28;20113;-71
2023/01/31 11:36:40;;;;;;;10.45;5.50;;;;;;;;;;10462762;28;20029;-73
2023/01/31 11:41:41;;;;;;;9.77;5.37;;;;;;;;;;10460997;28;20105;-74
2023/01/31 11:46:41;;;;;;;10.90;4.60;;;;;;;;;;10467184;28;20383;-73
2023/01/31 11:51:43;;;;;;;8.27;5.25;;;;;;;;;;10462344;23;20442;-77
2023/01/31 11:56:45;;;;;;;9.65;5.47;;;;;;;;;;10443656;28;20017;-71
2023/01/31 12:01:48;;;;;;;11.15;4.30;;;;;;;;;;10459207;28;20025;-73
2023/01/31 12:07:00;;;;;;;8.60;4.57;;;;;;;;;;10435913;28;20035;-74
2023/01/31 12:12:05;;;;;;;16.27;4.10;;;;;;;;;;10442146;28;20017;-78
2023/01/31 12:17:09;;;;;;;9.20;4.53;;;;;;;;;;10443020;28;20021;-73
2023/01/31 12:22:10;;;;;;;8.10;5.72;;;;;;;;;;10441609;28;20039;-78
2023/01/31 12:27:10;;;;;;;11.35;5.10;;;;;;;;;;10442104;28;20028;-79
2023/01/31 12:32:25;;;;;;;13.30;6.90;;;;;;;;;;10442188;28;20410;-75
2023/01/31 12:37:26;;;;;;;21.58;6.82;;;;;;;;;;10441591;28;20029;-80
2023/01/31 12:42:26;;;;;;;7.07;4.85;;;;;;;;;;10440019;28;20048;-73
2023/01/31 12:47:36;;;;;;;9.23;4.87;;;;;;;;;;10441151;28;20033;-74
2023/01/31 12:52:45;;;;;;;7.93;5.32;;;;;;;;;;10439927;28;20057;-72
2023/01/31 12:57:54;;;;;;;6.90;5.15;;;;;;;;;;10441558;28;20139;-77
2023/01/31 13:02:58;;;;;;;9.07;5.88;;;;;;;;;;10440716;28;20102;-76
2023/01/31 13:08:10;;;;;;;9.60;6.03;;;;;;;;;;10439980;28;20520;-78
2023/01/31 13:13:15;;;;;;;9.23;4.65;;;;;;;;;;10440075;28;20024;-81
2023/01/31 13:18:16;;;;;;;9.93;5.28;;;;;;;;;;10439993;28;20129;-73
2023/01/31 13:23:23;;;;;;;6.97;4.22;;;;;;;;;;10441430;28;20124;-76
2023/01/31 13:28:25;;;;;;;8.48;4.60;;;;;;;;;;10439741;28;20411;-74
2023/01/31 13:33:31;;;;;;;6.72;4.32;;;;;;;;;;10440215;28;20017;-79
2023/01/31 13:38:40;;;;;;;6.80;5.03;;;;;;;;;;10440177;28;20021;-74
2023/01/31 13:43:40;;;;;;;7.45;5.32;;;;;;;;;;10439513;28;20052;-76
2023/01/31 13:48:58;;;;;;;12.30;6.57;;;;;;;;;;10422430;28;20117;-75
2023/01/31 13:54:19;;;;;;;8.00;5.45;;;;;;;;;;10425173;28;20026;-75
2023/01/31 13:59:21;;;;;;;10.68;5.60;;;;;;;;;;10429109;28;20033;-77
2023/01/31 14:04:24;;;;;;;8.05;5.45;;;;;;;;;;10422610;28;20108;-70
2023/01/31 14:09:25;;;;;;;10.80;6.10;;;;;;;;;;10425056;28;20017;-71
2023/01/31 14:14:36;;;;;;;7.88;4.45;;;;;;;;;;10425198;28;20089;-76
2023/01/31 14:19:42;;;;;;;10.27;6.03;;;;;;;;;;10423085;28;20064;-73
2023/01/31 14:24:46;;;;;;;9.10;5.20;;;;;;;;;;10416094;28;20032;-73
2023/01/31 14:29:56;;;;;;;12.65;5.88;;;;;;;;;;10423072;28;20030;-74
2023/01/31 14:34:58;;;;;;;18.20;7.53;;;;;;;;;;10419322;28;20025;-72
2023/01/31 14:40:04;;;;;;;26.20;5.32;;;;;;;;;;10421953;28;20133;-77
2023/01/31 14:45:31;;;;;;;16.20;6.25;;;;;;;;;;10420521;28;20032;-74
2023/01/31 14:50:38;;;;;;;12.63;4.75;;;;;;;;;;10400891;28;20099;-75
2023/01/31 14:55:41;;;;;;;14.10;4.90;;;;;;;;;;10415635;28;20112;-70
2023/01/31 15:00:53;;;;;;;10.52;4.72;;;;;;;;;;10419017;28;20028;-72
2023/01/31 15:05:55;;;;;;;9.20;4.93;;;;;;;;;;10420775;28;20405;-73
2023/01/31 15:11:05;;;;;;;8.95;5.35;;;;;;;;;;10420016;28;20122;-71
2023/01/31 15:16:07;;;;;;;22.23;5.97;;;;;;;;;;10423791;28;20022;-72
2023/01/31 15:21:08;;;;;;;10.63;5.75;;;;;;;;;;10418150;28;20034;-71
2023/01/31 15:26:09;;;;;;;11.20;6.57;;;;;;;;;;10416522;28;20028;-74
2023/01/31 15:31:19;;;;;;;10.60;6.40;;;;;;;;;;10422164;28;20029;-73
2023/01/31 15:36:20;;;;;;;10.63;6.85;;;;;;;;;;10417175;28;20025;-70
2023/01/31 15:41:22;;;;;;;15.25;7.28;;;;;;;;;;10420920;28;20439;-72
2023/01/31 15:46:27;;;;;;;14.38;6.40;;;;;;;;;;10419304;28;20457;-75
2023/01/31 15:51:28;;;;;;;16.30;7.70;;;;;;;;;;10413205;28;20084;-72
2023/01/31 15:56:29;;;;;;;15.05;8.15;;;;;;;;;;10418530;28;20108;-76
2023/01/31 16:01:29;;;;;;;15.85;7.82;;;;;;;;;;10413423;28;20029;-71
2023/01/31 16:06:34;;;;;;;16.10;10.00;;;;;;;;;;10404402;28;20458;-72
2023/01/31 16:11:35;;;;;;;16.13;8.40;;;;;;;;;;10418482;28;20022;-73
2023/01/31 16:16:35;;;;;;;12.68;7.38;;;;;;;;;;10429482;28;20033;-72
2023/01/31 16:21:41;;;;;;;17.90;7.97;;;;;;;;;;10412487;28;20033;-76
2023/01/31 16:26:50;;;;;;;14.65;9.00;;;;;;;;;;10426544;28;20088;-71
2023/01/31 16:31:52;;;;;;;14.30;8.55;;;;;;;;;;10419482;28;20025;-75
2023/01/31 16:36:55;;;;;;;15.82;8.30;;;;;;;;;;10409438;28;20054;-73
2023/01/31 16:41:57;;;;;;;14.43;8.52;;;;;;;;;;10414501;28;20128;-70
2023/01/31 16:46:57;;;;;;;22.67;7.72;;;;;;;;;;10416664;28;20032;-79
2023/01/31 16:52:00;;;;;;;12.77;7.78;;;;;;;;;;10417524;28;20064;-70
2023/01/31 16:57:02;;;;;;;13.43;6.65;;;;;;;;;;10424853;28;20170;-76
2023/01/31 17:02:08;;;;;;;11.73;7.20;;;;;;;;;;10423418;28;20044;-79
2023/01/31 17:07:20;;;;;;;13.60;7.53;;;;;;;;;;10411525;28;20116;-71
2023/01/31 17:12:27;;;;;;;17.75;7.50;;;;;;;;;;10417720;28;20037;-74
2023/01/31 17:17:31;;;;;;;14.05;7.00;;;;;;;;;;10414409;28;20037;-75
2023/01/31 17:22:31;;;;;;;13.35;5.95;;;;;;;;;;10417880;28;20048;-72
2023/01/31 17:27:32;;;;;;;15.50;7.13;;;;;;;;;;10422068;28;20109;-76
2023/01/31 17:32:32;;;;;;;9.65;5.78;;;;;;;;;;10428063;28;20027;-68
2023/01/31 17:37:32;;;;;;;13.98;5.80;;;;;;;;;;10436437;28;20546;-75
2023/01/31 17:42:32;;;;;;;10.68;5.35;;;;;;;;;;10435670;28;20611;-70
2023/01/31 17:47:33;;;;;;;16.20;7.07;;;;;;;;;;10432605;28;20513;-75
2023/01/31 17:52:33;;;;;;;13.20;6.00;;;;;;;;;;10434773;28;20052;-76
2023/01/31 17:57:33;;;;;;;12.85;5.15;;;;;;;;;;10436902;28;20063;-76
2023/01/31 18:02:34;;;;;;;8.02;4.40;;;;;;;;;;10431406;28;20033;-72
2023/01/31 18:07:34;;;;;;;12.07;5.97;;;;;;;;;;10435178;28;20025;-72
2023/01/31 18:12:34;;;;;;;11.70;4.73;;;;;;;;;;10441788;28;20385;-73
2023/01/31 18:17:35;;;;;;;12.63;5.53;;;;;;;;;;10431389;28;20116;-73
2023/01/31 18:22:35;;;;;;;6.72;4.35;;;;;;;;;;10423289;28;20065;-73
2023/01/31 18:27:36;;;;;;;9.70;4.90;;;;;;;;;;10410852;28;20025;-76
2023/01/31 18:32:36;;;;;;;6.78;4.32;;;;;;;;;;10422131;28;20021;-73
2023/01/31 18:37:37;;;;;;;11.10;5.65;;;;;;;;;;10419589;28;20886;-75
2023/01/31 18:42:37;;;;;;;7.47;4.35;;;;;;;;;;10419289;28;20029;-73
2023/01/31 18:47:37;;;;;;;8.82;5.32;;;;;;;;;;10419664;28;20029;-75
2023/01/31 18:52:42;;;;;;;9.02;5.22;;;;;;;;;;10416683;28;20045;-75
2023/01/31 18:57:42;;;;;;;10.13;4.75;;;;;;;;;;10428632;28;20040;-75
2023/01/31 19:02:47;;;;;;;8.07;5.13;;;;;;;;;;10406897;28;20023;-76
2023/01/31 19:07:47;;;;;;;9.77;6.07;;;;;;;;;;10434251;28;20517;-75
2023/01/31 19:12:47;;;;;;;10.10;4.82;;;;;;;;;;10423749;28;20027;-74
2023/01/31 19:17:48;;;;;;;13.55;5.80;;;;;;;;;;10427269;28;20048;-75
2023/01/31 19:22:48;;;;;;;7.90;5.10;;;;;;;;;;10414984;28;20025;-72
2023/01/31 19:27:48;;;;;;;10.38;5.50;;;;;;;;;;10419804;28;20071;-75
2023/01/31 19:32:48;;;;;;;6.72;4.85;;;;;;;;;;10422677;28;20598;-78
2023/01/31 19:37:49;;;;;;;9.93;5.82;;;;;;;;;;10419349;28;20919;-73
2023/01/31 19:42:49;;;;;;;11.03;4.80;;;;;;;;;;10408456;28;20474;-74
2023/01/31 19:47:49;;;;;;;7.15;4.55;;;;;;;;;;10420610;28;20335;-72
2023/01/31 19:52:50;;;;;;;7.28;5.65;;;;;;;;;;10421204;28;20049;-72
2023/01/31 19:57:50;;;;;;;11.10;5.70;;;;;;;;;;10415930;28;20025;-71
2023/01/31 20:02:50;;;;;;;10.52;5.32;;;;;;;;;;10414245;28;20025;-75
2023/01/31 20:07:52;;;;;;;10.85;5.65;;;;;;;;;;10428909;28;20029;-75
2023/01/31 20:12:52;;;;;;;10.48;5.10;;;;;;;;;;10406600;28;20108;-73
2023/01/31 20:17:53;;;;;;;5.95;4.40;;;;;;;;;;10418157;28;20562;-75
2023/01/31 20:22:53;;;;;;;8.07;4.70;;;;;;;;;;10430879;28;20021;-72
2023/01/31 20:27:53;;;;;;;8.93;4.70;;;;;;;;;;10439548;28;20029;-72
2023/01/31 20:32:54;;;;;;;8.37;5.17;;;;;;;;;;10422480;28;20033;-74
2023/01/31 20:37:54;;;;;;;13.27;5.20;;;;;;;;;;10435483;28;20074;-75
2023/01/31 20:42:54;;;;;;;7.40;4.68;;;;;;;;;;10434316;28;20048;-76
2023/01/31 20:47:55;;;;;;;5.90;4.68;;;;;;;;;;10438798;28;20036;-77
2023/01/31 20:52:56;;;;;;;6.32;5.43;;;;;;;;;;10435713;28;20063;-76
2023/01/31 20:57:57;;;;;;;9.77;5.60;;;;;;;;;;10429881;28;20051;-75
2023/01/31 21:02:57;;;;;;;6.88;5.25;;;;;;;;;;10433141;28;20259;-76
2023/01/31 21:07:57;;;;;;;11.20;5.28;;;;;;;;;;10438158;28;20032;-72
2023/01/31 21:12:58;;;;;;;9.52;4.60;;;;;;;;;;10434862;28;20027;-76
2023/01/31 21:17:58;;;;;;;7.88;4.95;;;;;;;;;;10433973;28;20117;-72
2023/01/31 21:22:58;;;;;;;6.47;4.82;;;;;;;;;;10432755;28;20029;-70
2023/01/31 21:27:58;;;;;;;9.98;5.22;;;;;;;;;;10431502;28;20482;-73
2023/01/31 21:32:59;;;;;;;6.38;4.45;;;;;;;;;;10432136;28;20052;-70
2023/01/31 21:37:59;;;;;;;8.32;5.05;;;;;;;;;;10431672;28;20033;-76
2023/01/31 21:42:59;;;;;;;7.10;4.22;;;;;;;;;;10422051;28;20368;-77
2023/01/31 21:53:18;;;;;;;6.63;4.38;;;;;;;;;;10437438;28;20045;-77
2023/01/31 21:58:19;;;;;;;11.93;4.80;;;;;;;;;;10438653;28;20021;-72
2023/01/31 22:03:19;;;;;;;9.00;4.65;;;;;;;;;;10440047;28;20071;-74
2023/01/31 22:08:20;;;;;;;6.78;4.47;;;;;;;;;;10439303;28;20139;-70
2023/01/31 22:13:20;;;;;;;7.10;4.78;;;;;;;;;;10439370;28;20025;-77
2023/01/31 22:18:20;;;;;;;9.00;4.13;;;;;;;;;;10446503;28;20029;-70
2023/01/31 22:23:20;;;;;;;9.05;5.10;;;;;;;;;;10430557;28;20032;-79
2023/01/31 22:28:21;;;;;;;11.05;4.65;;;;;;;;;;10442846;28;20033;-78
2023/01/31 22:33:21;;;;;;;6.88;4.05;;;;;;;;;;10409404;28;20017;-70
2023/01/31 22:38:22;;;;;;;10.13;4.23;;;;;;;;;;10446525;28;20108;-74
2023/01/31 22:43:22;;;;;;;6.90;4.18;;;;;;;;;;10430795;28;20644;-74
2023/01/31 22:48:23;;;;;;;7.27;4.37;;;;;;;;;;10438263;28;20033;-69
2023/01/31 22:53:24;;;;;;;9.27;3.70;;;;;;;;;;10429468;28;20041;-70
2023/01/31 22:58:24;;;;;;;6.63;4.60;;;;;;;;;;10428939;28;20108;-72
2023/01/31 23:03:25;;;;;;;12.55;5.00;;;;;;;;;;10428700;28;20051;-71
2023/01/31 23:08:25;;;;;;;6.18;4.47;;;;;;;;;;10428758;28;20025;-71
2023/01/31 23:13:26;;;;;;;5.20;4.07;;;;;;;;;;10424678;28;20443;-72
2023/01/31 23:18:26;;;;;;;6.70;4.40;;;;;;;;;;10400151;28;20021;-76
2023/01/31 23:23:26;;;;;;;9.52;5.07;;;;;;;;;;10428227;28;20479;-74
2023/01/31 23:28:27;;;;;;;8.68;5.40;;;;;;;;;;10410693;28;20024;-73
2023/01/31 23:33:27;;;;;;;6.93;4.85;;;;;;;;;;10403146;28;20031;-79
2023/01/31 23:38:27;;;;;;;15.18;5.28;;;;;;;;;;10394718;28;20075;-76
2023/01/31 23:43:27;;;;;;;8.53;5.53;;;;;;;;;;10405506;28;20538;-76
2023/01/31 23:48:29;;;;;;;8.07;5.32;;;;;;;;;;10403794;28;20025;-75
2023/01/31 23:53:29;;;;;;;8.10;5.30;;;;;;;;;;10443695;28;20025;-76
2023/01/31 23:58:29;;;;;;;9.80;5.87;;;;;;;;;;10426947;28;20029;-75
